Time;durP1;ratioP1;P1;durP2;ratioP2;P2;SDS_P1;SDS_P2;PMS_P1;PMS_P2;Temp;Humidity;BMP_temperature;BMP_pressure;BME280_temperature;BME280_humidity;BME280_pressure;Samples;Min_cycle;Max_cycle;Signal;HPM_P1;HPM_P2
2023/10/01 00:00:07;;;;;;;1999.90;999.90;;;;;;;;;;5094838;28;20086;-86
2023/10/01 00:02:33;;;;;;;1999.90;999.90;;;;;;;;;;5096029;28;20121;-85
2023/10/01 00:05:00;;;;;;;1999.90;999.90;;;;;;;;;;5095625;28;20093;-85
2023/10/01 00:07:55;;;;;;;1999.90;999.90;;;;;;;;;;5095133;28;20052;-86
2023/10/01 00:10:23;;;;;;;1999.90;999.90;;;;;;;;;;5076738;28;20476;-86
2023/10/01 00:12:51;;;;;;;1999.90;999.90;;;;;;;;;;5095591;28;20056;-86
2023/10/01 00:15:21;;;;;;;1999.90;999.90;;;;;;;;;;5094168;28;20215;-86
2023/10/01 00:17:48;;;;;;;1999.90;999.90;;;;;;;;;;5095047;28;20062;-86
2023/10/01 00:22:59;;;;;;;1999.90;999.90;;;;;;;;;;5082856;28;20444;-86
2023/10/01 00:25:27;;;;;;;1999.90;999.90;;;;;;;;;;5094518;28;20135;-86
2023/10/01 00:28:08;;;;;;;1999.90;999.90;;;;;;;;;;5095152;28;20040;-86
2023/10/01 00:30:36;;;;;;;1999.90;999.90;;;;;;;;;;5094449;28;20056;-86
2023/10/01 00:33:05;;;;;;;1999.90;999.90;;;;;;;;;;5080673;28;20084;-86
2023/10/01 00:35:33;;;;;;;1999.90;999.90;;;;;;;;;;5054287;28;20044;-86
2023/10/01 00:38:00;;;;;;;1999.90;999.90;;;;;;;;;;5053843;28;20106;-86
2023/10/01 00:40:27;;;;;;;1999.90;999.90;;;;;;;;;;5043972;28;20041;-86
2023/10/01 00:43:03;;;;;;;1999.90;999.90;;;;;;;;;;5073849;28;20048;-86
2023/10/01 00:45:30;;;;;;;1999.90;999.90;;;;;;;;;;5054192;28;20053;-86
2023/10/01 00:48:03;;;;;;;1999.90;999.90;;;;;;;;;;5054049;28;20139;-88
2023/10/01 00:50:29;;;;;;;1999.90;999.90;;;;;;;;;;5093631;28;20086;-87
2023/10/01 00:52:57;;;;;;;1999.90;999.90;;;;;;;;;;5083662;28;20052;-87
2023/10/01 00:55:23;;;;;;;1999.90;999.90;;;;;;;;;;5073213;28;20045;-87
2023/10/01 00:57:54;;;;;;;1999.90;999.90;;;;;;;;;;5073284;28;20489;-86
2023/10/01 01:00:20;;;;;;;1999.90;999.90;;;;;;;;;;5071732;28;20087;-86
2023/10/01 01:02:57;;;;;;;1999.90;999.90;;;;;;;;;;5074170;28;20052;-87
2023/10/01 01:05:34;;;;;;;1999.90;999.90;;;;;;;;;;5093350;28;20079;-87
2023/10/01 01:08:07;;;;;;;1999.90;999.90;;;;;;;;;;5076466;28;20048;-88
2023/10/01 01:10:39;;;;;;;1999.90;999.90;;;;;;;;;;5065764;28;20102;-87
2023/10/01 01:13:06;;;;;;;1999.90;999.90;;;;;;;;;;5055258;28;20047;-87
2023/10/01 01:15:34;;;;;;;1999.90;999.90;;;;;;;;;;5074116;28;20501;-87
2023/10/01 01:18:00;;;;;;;1999.90;999.90;;;;;;;;;;5076841;28;20051;-87
2023/10/01 01:20:36;;;;;;;1999.90;999.90;;;;;;;;;;5073473;28;20067;-87
2023/10/01 01:23:08;;;;;;;1999.90;999.90;;;;;;;;;;5073810;28;20115;-87
2023/10/01 01:25:35;;;;;;;1999.90;999.90;;;;;;;;;;5075940;28;20539;-87
2023/10/01 01:28:05;;;;;;;1999.90;999.90;;;;;;;;;;5094512;28;20044;-87
2023/10/01 01:30:33;;;;;;;1999.90;999.90;;;;;;;;;;5092457;28;20408;-87
2023/10/01 01:33:00;;;;;;;1999.90;999.90;;;;;;;;;;5093257;28;20511;-87
2023/10/01 01:35:45;;;;;;;1999.90;999.90;;;;;;;;;;5093617;28;20048;-87
2023/10/01 01:38:12;;;;;;;1999.90;999.90;;;;;;;;;;5093525;28;20056;-87
2023/10/01 01:40:42;;;;;;;1999.90;999.90;;;;;;;;;;5067450;28;20080;-87
2023/10/01 01:43:21;;;;;;;1999.90;999.90;;;;;;;;;;5073378;28;20486;-87
2023/10/01 01:45:48;;;;;;;1999.90;999.90;;;;;;;;;;5073095;28;20049;-87
2023/10/01 01:48:31;;;;;;;1999.90;999.90;;;;;;;;;;5069467;28;20056;-87
2023/10/01 01:51:00;;;;;;;1999.90;999.90;;;;;;;;;;5072986;28;20051;-88
2023/10/01 01:53:34;;;;;;;1999.90;999.90;;;;;;;;;;5073361;28;20076;-88
2023/10/01 01:56:04;;;;;;;1999.90;999.90;;;;;;;;;;5084340;28;20045;-87
2023/10/01 01:58:32;;;;;;;1999.90;999.90;;;;;;;;;;5074222;28;20378;-87
2023/10/01 02:01:08;;;;;;;1999.90;999.90;;;;;;;;;;5084283;28;20045;-89
2023/10/01 02:03:37;;;;;;;1999.90;999.90;;;;;;;;;;5068981;28;20098;-90
2023/10/01 02:06:06;;;;;;;1999.90;999.90;;;;;;;;;;5080340;28;20385;-87
2023/10/01 02:08:48;;;;;;;1999.90;999.90;;;;;;;;;;5067622;28;20052;-87
2023/10/01 02:11:14;;;;;;;1999.90;999.90;;;;;;;;;;5052143;28;20069;-87
2023/10/01 02:13:41;;;;;;;1999.90;999.90;;;;;;;;;;5055379;28;20044;-87
2023/10/01 02:16:34;;;;;;;1999.90;999.90;;;;;;;;;;5080073;28;20044;-91
2023/10/01 02:19:14;;;;;;;1999.90;999.90;;;;;;;;;;5062159;28;20051;-87
2023/10/01 02:21:48;;;;;;;1999.90;999.90;;;;;;;;;;5075115;28;20045;-88
2023/10/01 02:24:22;;;;;;;1999.90;999.90;;;;;;;;;;5084590;28;20131;-88
2023/10/01 02:26:52;;;;;;;1999.90;999.90;;;;;;;;;;5074348;28;20082;-88
2023/10/01 02:29:24;;;;;;;1999.90;999.90;;;;;;;;;;5083163;28;20099;-87
2023/10/01 02:31:55;;;;;;;1999.90;999.90;;;;;;;;;;5068155;28;20076;-87
2023/10/01 02:34:21;;;;;;;1999.90;999.90;;;;;;;;;;5067250;28;20052;-89
2023/10/01 02:36:49;;;;;;;1999.90;999.90;;;;;;;;;;5074069;28;20045;-88
2023/10/01 02:39:21;;;;;;;1999.90;999.90;;;;;;;;;;5079395;28;20423;-89
2023/10/01 02:42:09;;;;;;;1999.90;999.90;;;;;;;;;;5085459;28;20511;-88
2023/10/01 02:44:38;;;;;;;1999.90;999.90;;;;;;;;;;5077136;28;20083;-88
2023/10/01 02:47:09;;;;;;;1999.90;999.90;;;;;;;;;;5077281;28;20401;-88
2023/10/01 02:49:36;;;;;;;1999.90;999.90;;;;;;;;;;5082772;28;20064;-88
2023/10/01 02:52:03;;;;;;;1999.90;999.90;;;;;;;;;;5081506;28;20051;-87
2023/10/01 02:54:31;;;;;;;1999.90;999.90;;;;;;;;;;5085172;28;20048;-87
2023/10/01 02:57:13;;;;;;;1999.90;999.90;;;;;;;;;;5076013;28;20057;-88
2023/10/01 03:00:09;;;;;;;1999.90;999.90;;;;;;;;;;5081178;28;20135;-89
2023/10/01 03:02:30;;;;;;;1999.90;999.90;;;;;;;;;;5070341;28;20118;-87
2023/10/01 03:04:59;;;;;;;1999.90;999.90;;;;;;;;;;5068336;28;20050;-88
2023/10/01 03:07:32;;;;;;;1999.90;999.90;;;;;;;;;;5087802;28;20492;-88
2023/10/01 03:10:11;;;;;;;1999.90;999.90;;;;;;;;;;5084715;28;20416;-88
2023/10/01 03:12:40;;;;;;;1999.90;999.90;;;;;;;;;;5063819;28;20044;-87
2023/10/01 03:15:23;;;;;;;1999.90;999.90;;;;;;;;;;5030846;28;20052;-88
2023/10/01 03:18:05;;;;;;;1999.90;999.90;;;;;;;;;;5078175;28;20106;-87
2023/10/01 03:23:25;;;;;;;1999.90;999.90;;;;;;;;;;5059856;28;20052;-88
2023/10/01 03:26:00;;;;;;;1999.90;999.90;;;;;;;;;;5082887;28;20113;-86
2023/10/01 03:28:28;;;;;;;1999.90;999.90;;;;;;;;;;5086160;28;20489;-87
2023/10/01 03:31:06;;;;;;;1999.90;999.90;;;;;;;;;;5064059;28;20125;-89
2023/10/01 03:33:37;;;;;;;1999.90;999.90;;;;;;;;;;5072109;28;20048;-88
2023/10/01 03:36:05;;;;;;;1999.90;999.90;;;;;;;;;;5074201;28;20074;-88
2023/10/01 03:38:32;;;;;;;1999.90;999.90;;;;;;;;;;5075516;28;20040;-87
2023/10/01 03:41:02;;;;;;;1999.90;999.90;;;;;;;;;;5085950;28;20072;-87
2023/10/01 03:43:34;;;;;;;1999.90;999.90;;;;;;;;;;5081012;28;20052;-89
2023/10/01 03:46:06;;;;;;;1999.90;999.90;;;;;;;;;;5086444;28;20044;-87
2023/10/01 03:48:57;;;;;;;1999.90;999.90;;;;;;;;;;5062651;28;20094;-86
2023/10/01 03:51:28;;;;;;;1999.90;999.90;;;;;;;;;;5080559;28;20124;-87
2023/10/01 03:53:59;;;;;;;1999.90;999.90;;;;;;;;;;5070083;28;20045;-88
2023/10/01 03:56:29;;;;;;;1999.90;999.90;;;;;;;;;;5072936;28;20066;-89
2023/10/01 03:58:57;;;;;;;1999.90;999.90;;;;;;;;;;5087801;28;20127;-87
2023/10/01 04:01:33;;;;;;;1999.90;999.90;;;;;;;;;;5071780;28;20051;-87
2023/10/01 04:04:00;;;;;;;;;;;;;;;;;;5084684;28;20399;-87
2023/10/01 04:06:27;;;;;;;1999.90;999.90;;;;;;;;;;5074259;28;19927;-87
2023/10/01 04:08:55;;;;;;;1999.90;999.90;;;;;;;;;;5075901;28;20114;-86
2023/10/01 04:11:41;;;;;;;1999.90;999.90;;;;;;;;;;5075019;28;20130;-86
2023/10/01 04:14:11;;;;;;;1999.90;999.90;;;;;;;;;;5079320;28;20045;-86
2023/10/01 04:16:46;;;;;;;1999.90;999.90;;;;;;;;;;5060487;28;20082;-87
2023/10/01 04:19:18;;;;;;;1999.90;999.90;;;;;;;;;;5079522;28;20089;-88
2023/10/01 04:21:50;;;;;;;1999.90;999.90;;;;;;;;;;5091618;28;20472;-86
2023/10/01 04:24:19;;;;;;;1999.90;999.90;;;;;;;;;;5080139;28;20044;-86
2023/10/01 04:26:46;;;;;;;1999.90;999.90;;;;;;;;;;5076193;28;20098;-86
2023/10/01 04:29:16;;;;;;;1999.90;999.90;;;;;;;;;;5078362;28;20435;-86
2023/10/01 04:31:48;;;;;;;1999.90;999.90;;;;;;;;;;5079161;28;20127;-86
2023/10/01 04:34:15;;;;;;;1999.90;999.90;;;;;;;;;;5070316;28;20052;-86
2023/10/01 04:36:43;;;;;;;1999.90;999.90;;;;;;;;;;5083290;28;20365;-86
2023/10/01 04:39:09;;;;;;;1999.90;999.90;;;;;;;;;;5077723;28;20044;-87
2023/10/01 04:41:37;;;;;;;1999.90;999.90;;;;;;;;;;5076111;28;20045;-86
2023/10/01 04:44:07;;;;;;;1999.90;999.90;;;;;;;;;;5073931;28;20083;-86
2023/10/01 04:46:37;;;;;;;1999.90;999.90;;;;;;;;;;5073775;28;20400;-86
2023/10/01 04:49:08;;;;;;;1999.90;999.90;;;;;;;;;;5079567;28;20040;-86
2023/10/01 04:51:44;;;;;;;1999.90;999.90;;;;;;;;;;5072525;28;20056;-86
2023/10/01 04:54:13;;;;;;;1999.90;999.90;;;;;;;;;;5073798;28;20050;-86
2023/10/01 04:56:41;;;;;;;1999.90;999.90;;;;;;;;;;5073851;28;20051;-86
2023/10/01 04:59:07;;;;;;;1999.90;999.90;;;;;;;;;;5073777;28;20047;-86
2023/10/01 05:01:35;;;;;;;1999.90;999.90;;;;;;;;;;5073530;28;20051;-86
2023/10/01 05:04:02;;;;;;;1999.90;999.90;;;;;;;;;;5073964;28;20063;-86
2023/10/01 05:06:31;;;;;;;1999.90;999.90;;;;;;;;;;5073698;28;20049;-86
2023/10/01 05:08:58;;;;;;;1999.90;999.90;;;;;;;;;;5073619;28;20131;-87
2023/10/01 05:11:29;;;;;;;1999.90;999.90;;;;;;;;;;5072548;28;20405;-86
2023/10/01 05:13:58;;;;;;;1999.90;999.90;;;;;;;;;;5073713;28;20052;-87
2023/10/01 05:16:27;;;;;;;1999.90;999.90;;;;;;;;;;5077263;28;20044;-86
2023/10/01 05:19:10;;;;;;;1999.90;999.90;;;;;;;;;;5082545;28;20570;-86
2023/10/01 05:21:46;;;;;;;1999.90;999.90;;;;;;;;;;5071505;28;20041;-87
2023/10/01 05:24:15;;;;;;;1999.90;999.90;;;;;;;;;;5075321;28;20131;-87
2023/10/01 05:26:43;;;;;;;1999.90;999.90;;;;;;;;;;5074878;28;20075;-87
2023/10/01 05:29:13;;;;;;;1999.90;999.90;;;;;;;;;;5077055;28;20048;-87
2023/10/01 05:31:41;;;;;;;1999.90;999.90;;;;;;;;;;5064931;28;20045;-87
2023/10/01 05:34:11;;;;;;;1999.90;999.90;;;;;;;;;;5078423;28;20040;-87
2023/10/01 05:36:38;;;;;;;1999.90;999.90;;;;;;;;;;5083298;28;20049;-89
2023/10/01 05:39:11;;;;;;;1999.90;999.90;;;;;;;;;;5074606;28;20494;-90
2023/10/01 05:41:38;;;;;;;1999.90;999.90;;;;;;;;;;5075334;28;20044;-86
2023/10/01 05:44:22;;;;;;;1999.90;999.90;;;;;;;;;;5055227;28;20053;-87
2023/10/01 05:46:49;;;;;;;1999.90;999.90;;;;;;;;;;5072159;28;20049;-87
2023/10/01 05:49:18;;;;;;;1999.90;999.90;;;;;;;;;;5079690;28;20066;-86
2023/10/01 05:51:46;;;;;;;1999.90;999.90;;;;;;;;;;5063216;28;20275;-87
2023/10/01 05:54:18;;;;;;;1999.90;999.90;;;;;;;;;;5071121;28;20473;-88
2023/10/01 05:56:48;;;;;;;1999.90;999.90;;;;;;;;;;5079146;28;20049;-90
2023/10/01 05:59:15;;;;;;;1999.90;999.90;;;;;;;;;;5070280;28;20056;-92
2023/10/01 06:01:43;;;;;;;1999.90;999.90;;;;;;;;;;5071226;28;20049;-88
2023/10/01 06:04:12;;;;;;;1999.90;999.90;;;;;;;;;;5068659;28;20071;-87
2023/10/01 06:06:42;;;;;;;1999.90;999.90;;;;;;;;;;5080262;28;20040;-88
2023/10/01 06:09:14;;;;;;;1999.90;999.90;;;;;;;;;;5075459;28;20048;-87
2023/10/01 06:11:48;;;;;;;1999.90;999.90;;;;;;;;;;5060679;28;20049;-90
2023/10/01 06:14:40;;;;;;;1999.90;999.90;;;;;;;;;;5078058;28;20471;-87
2023/10/01 06:17:07;;;;;;;1999.90;999.90;;;;;;;;;;5084512;28;20045;-88
2023/10/01 06:19:34;;;;;;;1999.90;999.90;;;;;;;;;;5080158;28;20048;-87
2023/10/01 06:22:16;;;;;;;1999.90;999.90;;;;;;;;;;5080485;28;20051;-86
2023/10/01 06:24:43;;;;;;;1999.90;999.90;;;;;;;;;;5066691;28;20084;-87
2023/10/01 06:27:12;;;;;;;1999.90;999.90;;;;;;;;;;5078120;28;20385;-87
2023/10/01 06:29:49;;;;;;;1999.90;999.90;;;;;;;;;;5075715;28;20067;-87
2023/10/01 06:32:17;;;;;;;1999.90;999.90;;;;;;;;;;5078868;28;20048;-87
2023/10/01 06:34:45;;;;;;;1999.90;999.90;;;;;;;;;;5075179;28;20064;-87
2023/10/01 06:37:13;;;;;;;1999.90;999.90;;;;;;;;;;5079835;28;20044;-87
2023/10/01 06:39:41;;;;;;;1999.90;999.90;;;;;;;;;;5078337;28;20493;-87
2023/10/01 06:42:23;;;;;;;1999.90;999.90;;;;;;;;;;5082954;28;20080;-87
2023/10/01 06:44:55;;;;;;;1999.90;999.90;;;;;;;;;;5068879;28;20382;-86
2023/10/01 06:47:23;;;;;;;1999.90;999.90;;;;;;;;;;5084038;28;20044;-85
2023/10/01 06:50:07;;;;;;;1999.90;999.90;;;;;;;;;;5089014;28;20546;-85
2023/10/01 06:52:41;;;;;;;1999.90;999.90;;;;;;;;;;5081139;28;20044;-86
2023/10/01 06:55:25;;;;;;;1999.90;999.90;;;;;;;;;;5075157;28;20052;-87
2023/10/01 06:57:52;;;;;;;1999.90;999.90;;;;;;;;;;5078023;28;20129;-87
2023/10/01 07:00:22;;;;;;;1999.90;999.90;;;;;;;;;;5075517;28;20041;-87
2023/10/01 07:02:49;;;;;;;1999.90;999.90;;;;;;;;;;5074504;28;20051;-87
2023/10/01 07:05:20;;;;;;;1999.90;999.90;;;;;;;;;;5076858;28;20056;-87
2023/10/01 07:07:49;;;;;;;1999.90;999.90;;;;;;;;;;5072688;28;20080;-86
2023/10/01 07:10:19;;;;;;;1999.90;999.90;;;;;;;;;;5078981;28;20085;-87
2023/10/01 07:12:58;;;;;;;1999.90;999.90;;;;;;;;;;5075173;28;20060;-87
2023/10/01 07:15:26;;;;;;;1999.90;999.90;;;;;;;;;;5076067;28;20045;-87
2023/10/01 07:17:52;;;;;;;1999.90;999.90;;;;;;;;;;5066332;28;20040;-87
2023/10/01 07:20:19;;;;;;;1999.90;999.90;;;;;;;;;;5072306;28;20052;-86
2023/10/01 07:22:46;;;;;;;1999.90;999.90;;;;;;;;;;5077051;28;20483;-86
2023/10/01 07:28:19;;;;;;;1999.90;999.90;;;;;;;;;;5117912;27;20414;-89
2023/10/01 07:30:46;;;;;;;1999.90;999.90;;;;;;;;;;5111968;28;20459;-91
2023/10/01 07:33:16;;;;;;;1999.90;999.90;;;;;;;;;;5121514;28;20196;-88
2023/10/01 07:35:44;;;;;;;1999.90;999.90;;;;;;;;;;5123539;28;20038;-87
2023/10/01 07:38:13;;;;;;;1999.90;999.90;;;;;;;;;;5120658;28;20055;-86
2023/10/01 07:40:57;;;;;;;1999.90;999.90;;;;;;;;;;5116772;27;20044;-87
2023/10/01 07:43:26;;;;;;;1999.90;999.90;;;;;;;;;;5123557;28;20043;-88
2023/10/01 07:46:01;;;;;;;1999.90;999.90;;;;;;;;;;5113206;28;20059;-86
2023/10/01 07:48:29;;;;;;;1999.90;999.90;;;;;;;;;;5120840;28;20052;-91
2023/10/01 07:50:56;;;;;;;1999.90;999.90;;;;;;;;;;5125396;28;20055;-91
2023/10/01 07:53:23;;;;;;;1999.90;999.90;;;;;;;;;;5116794;28;20128;-89
2023/10/01 07:55:50;;;;;;;1999.90;999.90;;;;;;;;;;5115077;28;20051;-92
2023/10/01 07:58:44;;;;;;;1999.90;999.90;;;;;;;;;;5124650;28;20050;-89
2023/10/01 08:03:58;;;;;;;1999.90;999.90;;;;;;;;;;5118228;28;20059;-91
2023/10/01 08:06:30;;;;;;;1999.90;999.90;;;;;;;;;;5119517;28;20048;-90
2023/10/01 08:08:59;;;;;;;1999.90;999.90;;;;;;;;;;5120291;28;20500;-96
2023/10/01 08:14:11;;;;;;;1999.90;999.90;;;;;;;;;;5117990;28;20054;-94
2023/10/01 08:16:48;;;;;;;1999.90;999.90;;;;;;;;;;5117191;27;20422;-90
2023/10/01 08:19:20;;;;;;;1999.90;999.90;;;;;;;;;;5120076;28;20059;-90
2023/10/01 08:21:50;;;;;;;1999.90;999.90;;;;;;;;;;5118495;28;20075;-94
2023/10/01 08:24:18;;;;;;;1999.90;999.90;;;;;;;;;;5121893;28;20078;-93
2023/10/01 08:26:50;;;;;;;1999.90;999.90;;;;;;;;;;5114685;28;20056;-88
2023/10/01 08:29:16;;;;;;;1999.90;999.90;;;;;;;;;;5109176;28;20188;-93
2023/10/01 08:34:27;;;;;;;1999.90;999.90;;;;;;;;;;5114791;28;20051;-89
2023/10/01 08:36:55;;;;;;;1999.90;999.90;;;;;;;;;;5112457;28;20071;-90
2023/10/01 08:39:33;;;;;;;1999.90;999.90;;;;;;;;;;5100927;28;20354;-91
2023/10/01 08:42:08;;;;;;;1999.90;999.90;;;;;;;;;;5105352;27;20145;-95
2023/10/01 08:44:44;;;;;;;1999.90;999.90;;;;;;;;;;5104284;28;20096;-92
2023/10/01 08:47:27;;;;;;;1999.90;999.90;;;;;;;;;;5106446;28;20849;-95
2023/10/01 08:49:55;;;;;;;1999.90;999.90;;;;;;;;;;5101712;28;20080;-90
2023/10/01 08:52:26;;;;;;;1999.90;999.90;;;;;;;;;;5108245;28;20062;-87
2023/10/01 08:54:54;;;;;;;1999.90;999.90;;;;;;;;;;5102775;28;20043;-86
2023/10/01 08:57:36;;;;;;;1999.90;999.90;;;;;;;;;;5099071;28;20056;-85
2023/10/01 09:00:14;;;;;;;1999.90;999.90;;;;;;;;;;5100526;28;20405;-85
2023/10/01 09:02:42;;;;;;;1999.90;999.90;;;;;;;;;;5104496;28;20641;-85
2023/10/01 09:05:11;;;;;;;1999.90;999.90;;;;;;;;;;5104776;28;20056;-83
2023/10/01 09:07:41;;;;;;;1999.90;999.90;;;;;;;;;;5098553;28;20373;-86
2023/10/01 09:10:09;;;;;;;1999.90;999.90;;;;;;;;;;5102787;28;20059;-83
2023/10/01 09:12:45;;;;;;;1999.90;999.90;;;;;;;;;;5099222;28;20051;-87
2023/10/01 09:15:22;;;;;;;1999.90;999.90;;;;;;;;;;5104014;28;20048;-85
2023/10/01 09:17:58;;;;;;;1999.90;999.90;;;;;;;;;;5102001;28;20055;-83
2023/10/01 09:20:42;;;;;;;1999.90;999.90;;;;;;;;;;5100176;28;20040;-84
2023/10/01 09:23:09;;;;;;;1999.90;999.90;;;;;;;;;;5097065;28;20116;-84
2023/10/01 09:25:39;;;;;;;1999.90;999.90;;;;;;;;;;5101570;28;20042;-83
2023/10/01 09:28:20;;;;;;;1999.90;999.90;;;;;;;;;;5103009;28;20051;-84
2023/10/01 09:31:02;;;;;;;1999.90;999.90;;;;;;;;;;5098821;28;20048;-82
2023/10/01 09:33:32;;;;;;;1999.90;999.90;;;;;;;;;;5102018;28;20044;-82
2023/10/01 09:36:00;;;;;;;1999.90;999.90;;;;;;;;;;5095549;28;20093;-82
2023/10/01 09:38:28;;;;;;;1999.90;999.90;;;;;;;;;;5099747;28;20120;-81
2023/10/01 09:40:55;;;;;;;1999.90;999.90;;;;;;;;;;5102526;28;20128;-81
2023/10/01 09:43:27;;;;;;;1999.90;999.90;;;;;;;;;;5101018;28;20044;-81
2023/10/01 09:45:58;;;;;;;1999.90;999.90;;;;;;;;;;5099946;28;20043;-82
2023/10/01 09:48:33;;;;;;;1999.90;999.90;;;;;;;;;;5103101;28;20048;-81
2023/10/01 09:51:08;;;;;;;1999.90;999.90;;;;;;;;;;5094683;28;20462;-82
2023/10/01 09:53:47;;;;;;;1999.90;999.90;;;;;;;;;;5094698;28;20055;-82
2023/10/01 09:56:15;;;;;;;1999.90;999.90;;;;;;;;;;5105445;28;20070;-85
2023/10/01 09:58:46;;;;;;;1999.90;999.90;;;;;;;;;;5101209;28;20067;-84
2023/10/01 10:01:17;;;;;;;1999.90;999.90;;;;;;;;;;5097465;28;20059;-84
2023/10/01 10:03:44;;;;;;;1999.90;999.90;;;;;;;;;;5098254;28;20117;-82
2023/10/01 10:06:24;;;;;;;1999.90;999.90;;;;;;;;;;5103471;28;20040;-82
2023/10/01 10:09:03;;;;;;;1999.90;999.90;;;;;;;;;;5102948;28;20130;-82
2023/10/01 10:11:30;;;;;;;1999.90;999.90;;;;;;;;;;5100123;28;20048;-82
2023/10/01 10:14:00;;;;;;;1999.90;999.90;;;;;;;;;;5097535;28;20048;-82
2023/10/01 10:16:32;;;;;;;1999.90;999.90;;;;;;;;;;5098185;28;20120;-82
2023/10/01 10:19:05;;;;;;;1999.90;999.90;;;;;;;;;;5100261;28;20044;-82
2023/10/01 10:22:16;;;;;;;1999.90;999.90;;;;;;;;;;5097329;28;20047;-81
2023/10/01 10:24:46;;;;;;;1999.90;999.90;;;;;;;;;;5086967;28;20412;-81
2023/10/01 10:27:17;;;;;;;1999.90;999.90;;;;;;;;;;5096305;28;20488;-83
2023/10/01 10:30:15;;;;;;;1999.90;999.90;;;;;;;;;;5096777;28;20401;-81
2023/10/01 10:33:39;;;;;;;1999.90;999.90;;;;;;;;;;5098331;28;20051;-81
2023/10/01 10:36:53;;;;;;;1999.90;999.90;;;;;;;;;;5097698;28;20048;-82
2023/10/01 10:40:22;;;;;;;1999.90;999.90;;;;;;;;;;5096225;28;20597;-81
2023/10/01 10:43:16;;;;;;;1999.90;999.90;;;;;;;;;;5101188;28;20092;-82
2023/10/01 10:45:59;;;;;;;1999.90;999.90;;;;;;;;;;5101353;28;20136;-82
2023/10/01 10:48:59;;;;;;;1999.90;999.90;;;;;;;;;;5098320;28;20587;-82
2023/10/01 10:51:45;;;;;;;1999.90;999.90;;;;;;;;;;5096215;28;20489;-83
2023/10/01 10:54:16;;;;;;;1999.90;999.90;;;;;;;;;;5095107;28;20047;-84
2023/10/01 10:56:44;;;;;;;1999.90;999.90;;;;;;;;;;5095118;28;20724;-83
2023/10/01 10:59:14;;;;;;;1999.90;999.90;;;;;;;;;;5099282;28;20051;-82
2023/10/01 11:01:44;;;;;;;1999.90;999.90;;;;;;;;;;5097229;28;20040;-84
2023/10/01 11:04:11;;;;;;;1999.90;999.90;;;;;;;;;;5099207;28;20043;-84
2023/10/01 11:06:42;;;;;;;1999.90;999.90;;;;;;;;;;5096546;28;20133;-85
2023/10/01 11:09:22;;;;;;;1999.90;999.90;;;;;;;;;;5101413;27;20047;-83
2023/10/01 11:11:50;;;;;;;1999.90;999.90;;;;;;;;;;5097946;28;20079;-82
2023/10/01 11:14:17;;;;;;;1999.90;999.90;;;;;;;;;;5097017;28;20044;-84
2023/10/01 11:16:45;;;;;;;1999.90;999.90;;;;;;;;;;5100409;28;20483;-84
2023/10/01 11:19:14;;;;;;;1999.90;999.90;;;;;;;;;;5097576;28;20059;-82
2023/10/01 11:21:54;;;;;;;1999.90;999.90;;;;;;;;;;5099365;28;20048;-82
2023/10/01 11:24:22;;;;;;;1999.90;999.90;;;;;;;;;;5099964;28;20385;-85
2023/10/01 11:27:22;;;;;;;1999.90;999.90;;;;;;;;;;5099507;28;20129;-82
2023/10/01 11:30:13;;;;;;;1999.90;999.90;;;;;;;;;;5092519;28;20472;-82
2023/10/01 11:32:57;;;;;;;1999.90;999.90;;;;;;;;;;5097368;28;20066;-82
2023/10/01 11:35:31;;;;;;;1999.90;999.90;;;;;;;;;;5102879;28;20482;-81
2023/10/01 11:38:03;;;;;;;1999.90;999.90;;;;;;;;;;5099871;28;20139;-82
2023/10/01 11:41:06;;;;;;;1999.90;999.90;;;;;;;;;;5100455;28;20048;-82
2023/10/01 11:43:27;;;;;;;1999.90;999.90;;;;;;;;;;5098639;28;20048;-82
2023/10/01 11:46:19;;;;;;;1999.90;999.90;;;;;;;;;;5104151;28;20055;-83
2023/10/01 11:48:59;;;;;;;1999.90;999.90;;;;;;;;;;5101809;28;20492;-82
2023/10/01 11:51:36;;;;;;;1999.90;999.90;;;;;;;;;;5096448;28;20055;-85
2023/10/01 11:54:09;;;;;;;1999.90;999.90;;;;;;;;;;5102476;28;20071;-85
2023/10/01 11:56:37;;;;;;;1999.90;999.90;;;;;;;;;;5089635;28;20089;-85
2023/10/01 11:59:08;;;;;;;1999.90;999.90;;;;;;;;;;5099412;28;20487;-84
2023/10/01 12:01:39;;;;;;;1999.90;999.90;;;;;;;;;;5104441;28;20040;-82
2023/10/01 12:04:07;;;;;;;1999.90;999.90;;;;;;;;;;5100224;28;20036;-84
2023/10/01 12:06:34;;;;;;;1999.90;999.90;;;;;;;;;;5098103;28;20044;-82
2023/10/01 12:09:01;;;;;;;1999.90;999.90;;;;;;;;;;5098496;28;20104;-82
2023/10/01 12:11:28;;;;;;;1999.90;999.90;;;;;;;;;;5103764;28;20479;-82
2023/10/01 12:14:08;;;;;;;1999.90;999.90;;;;;;;;;;5102138;28;20050;-79
2023/10/01 12:16:39;;;;;;;1999.90;999.90;;;;;;;;;;5098585;28;20173;-85
2023/10/01 12:19:24;;;;;;;1999.90;999.90;;;;;;;;;;5108875;28;20051;-82
2023/10/01 12:22:05;;;;;;;1999.90;999.90;;;;;;;;;;5101622;28;20062;-84
2023/10/01 12:24:39;;;;;;;1999.90;999.90;;;;;;;;;;5098369;28;20051;-83
2023/10/01 12:27:07;;;;;;;1999.90;999.90;;;;;;;;;;5101433;28;20110;-84
2023/10/01 12:29:42;;;;;;;1999.90;999.90;;;;;;;;;;5096449;28;20051;-83
2023/10/01 12:32:11;;;;;;;1999.90;999.90;;;;;;;;;;5103952;28;20043;-85
2023/10/01 12:34:37;;;;;;;1999.90;999.90;;;;;;;;;;5101685;28;20044;-85
2023/10/01 12:37:07;;;;;;;1999.90;999.90;;;;;;;;;;5099199;28;20085;-84
2023/10/01 12:39:34;;;;;;;1999.90;999.90;;;;;;;;;;5100984;28;20063;-85
2023/10/01 12:42:04;;;;;;;1999.90;999.90;;;;;;;;;;5097115;28;20155;-85
2023/10/01 12:44:31;;;;;;;1999.90;999.90;;;;;;;;;;5106872;28;20074;-86
2023/10/01 12:47:00;;;;;;;1999.90;999.90;;;;;;;;;;5101190;28;20080;-86
2023/10/01 12:49:27;;;;;;;1999.90;999.90;;;;;;;;;;5098865;28;20048;-83
2023/10/01 12:51:54;;;;;;;1999.90;999.90;;;;;;;;;;5107587;28;20160;-86
2023/10/01 12:54:24;;;;;;;1999.90;999.90;;;;;;;;;;5118051;28;20068;-84
2023/10/01 12:57:09;;;;;;;1999.90;999.90;;;;;;;;;;5098712;28;20058;-83
2023/10/01 12:59:39;;;;;;;1999.90;999.90;;;;;;;;;;5097409;28;20055;-82
2023/10/01 13:02:21;;;;;;;1999.90;999.90;;;;;;;;;;5100836;28;20131;-84
2023/10/01 13:04:50;;;;;;;1999.90;999.90;;;;;;;;;;5119723;28;20047;-83
2023/10/01 13:07:27;;;;;;;1999.90;999.90;;;;;;;;;;5119576;28;20040;-81
2023/10/01 13:09:53;;;;;;;1999.90;999.90;;;;;;;;;;5111236;28;20055;-84
2023/10/01 13:12:25;;;;;;;1999.90;999.90;;;;;;;;;;5106071;28;20168;-82
2023/10/01 13:17:43;;;;;;;1999.90;999.90;;;;;;;;;;5114886;28;20239;-83
2023/10/01 13:20:28;;;;;;;1999.90;999.90;;;;;;;;;;5103244;28;20104;-83
2023/10/01 13:22:59;;;;;;;1999.90;999.90;;;;;;;;;;5111174;28;20043;-83
2023/10/01 13:25:26;;;;;;;1999.90;999.90;;;;;;;;;;5106871;28;20039;-84
2023/10/01 13:28:01;;;;;;;1999.90;999.90;;;;;;;;;;5119781;28;20044;-84
2023/10/01 13:30:31;;;;;;;1999.90;999.90;;;;;;;;;;5123786;28;20065;-86
2023/10/01 13:33:14;;;;;;;1999.90;999.90;;;;;;;;;;5106246;28;20128;-85
2023/10/01 13:35:52;;;;;;;1999.90;999.90;;;;;;;;;;5105191;28;20055;-82
2023/10/01 14:08:50;;;;;;;1999.90;999.90;;;;;;;;;;5111361;28;20114;-85
2023/10/01 14:11:26;;;;;;;1999.90;999.90;;;;;;;;;;5115467;28;20051;-83
2023/10/01 14:13:56;;;;;;;1999.90;999.90;;;;;;;;;;5104193;28;20055;-85
2023/10/01 14:16:23;;;;;;;1999.90;999.90;;;;;;;;;;5106882;28;20047;-85
2023/10/01 14:19:13;;;;;;;1999.90;999.90;;;;;;;;;;5107687;28;20044;-86
2023/10/01 14:21:40;;;;;;;1999.90;999.90;;;;;;;;;;5111120;28;20108;-84
2023/10/01 14:27:00;;;;;;;1999.90;999.90;;;;;;;;;;5097484;28;20262;-84
2023/10/01 14:29:31;;;;;;;1999.90;999.90;;;;;;;;;;5095445;28;20082;-87
2023/10/01 14:32:10;;;;;;;1999.90;999.90;;;;;;;;;;5112550;28;20047;-87
2023/10/01 14:34:36;;;;;;;1999.90;999.90;;;;;;;;;;5111021;28;20055;-84
2023/10/01 14:37:03;;;;;;;1999.90;999.90;;;;;;;;;;5105484;28;20054;-83
2023/10/01 14:39:31;;;;;;;1999.90;999.90;;;;;;;;;;5103632;28;20625;-84
2023/10/01 14:41:57;;;;;;;1999.90;999.90;;;;;;;;;;5093322;28;20055;-83
2023/10/01 14:44:25;;;;;;;1999.90;999.90;;;;;;;;;;5103804;28;20044;-88
2023/10/01 14:46:54;;;;;;;1999.90;999.90;;;;;;;;;;5114938;28;20039;-86
2023/10/01 14:49:22;;;;;;;1999.90;999.90;;;;;;;;;;5116033;28;20427;-83
2023/10/01 14:51:57;;;;;;;1999.90;999.90;;;;;;;;;;5119553;28;20474;-84
2023/10/01 14:54:25;;;;;;;;;;;;;;;;;;5122111;28;20052;-87
2023/10/01 14:57:29;;;;;;;1999.90;999.90;;;;;;;;;;5122826;28;19919;-86
2023/10/01 15:00:16;;;;;;;1999.90;999.90;;;;;;;;;;5123835;28;20059;-87
2023/10/01 15:02:42;;;;;;;1999.90;999.90;;;;;;;;;;5126260;28;20056;-86
2023/10/01 15:05:13;;;;;;;1999.90;999.90;;;;;;;;;;5118088;28;20043;-90